sensor_id;sensor_type;location;lat;lon;timestamp;temperature;humidity
52543;DHT22;38449;52.696;6.186;2023-07-31T00:02:04;16.10;99.90
52543;DHT22;38449;52.696;6.186;2023-07-31T00:04:30;16.10;99.90
52543;DHT22;38449;52.696;6.186;2023-07-31T00:06:56;16.00;99.90
52543;DHT22;38449;52.696;6.186;2023-07-31T00:09:23;16.00;99.90
52543;DHT22;38449;52.696;6.186;2023-07-31T00:11:50;16.00;99.90
52543;DHT22;38449;52.696;6.186;2023-07-31T00:14:16;15.90;99.90
52543;DHT22;38449;52.696;6.186;2023-07-31T00:16:43;16.00;99.90
52543;DHT22;38449;52.696;6.186;2023-07-31T00:19:09;15.90;99.90
52543;DHT22;38449;52.696;6.186;2023-07-31T00:21:35;15.90;99.90
52543;DHT22;38449;52.696;6.186;2023-07-31T00:24:02;15.80;99.90
52543;DHT22;38449;52.696;6.186;2023-07-31T00:26:30;15.90;99.90
52543;DHT22;38449;52.696;6.186;2023-07-31T00:28:57;15.80;99.90
52543;DHT22;38449;52.696;6.186;2023-07-31T00:31:23;15.70;99.90
52543;DHT22;38449;52.696;6.186;2023-07-31T00:33:50;15.70;99.90
52543;DHT22;38449;52.696;6.186;2023-07-31T00:36:16;15.70;99.90
52543;DHT22;38449;52.696;6.186;2023-07-31T00:38:44;15.60;99.90
52543;DHT22;38449;52.696;6.186;2023-07-31T00:41:10;15.60;99.90
52543;DHT22;38449;52.696;6.186;2023-07-31T00:43:36;15.60;99.90
52543;DHT22;38449;52.696;6.186;2023-07-31T00:46:03;15.70;99.90
52543;DHT22;38449;52.696;6.186;2023-07-31T00:48:30;15.60;99.90
52543;DHT22;38449;52.696;6.186;2023-07-31T00:50:58;15.60;99.90
52543;DHT22;38449;52.696;6.186;2023-07-31T00:53:25;15.70;99.90
52543;DHT22;38449;52.696;6.186;2023-07-31T00:55:52;15.60;99.90
52543;DHT22;38449;52.696;6.186;2023-07-31T00:58:19;15.70;99.90
52543;DHT22;38449;52.696;6.186;2023-07-31T01:00:45;15.70;99.90
52543;DHT22;38449;52.696;6.186;2023-07-31T01:03:12;15.60;99.90
52543;DHT22;38449;52.696;6.186;2023-07-31T01:06:02;15.60;99.90
52543;DHT22;38449;52.696;6.186;2023-07-31T01:08:40;15.60;99.90
52543;DHT22;38449;52.696;6.186;2023-07-31T01:11:17;15.70;99.90
52543;DHT22;38449;52.696;6.186;2023-07-31T01:13:44;15.70;99.90
52543;DHT22;38449;52.696;6.186;2023-07-31T01:16:12;15.80;99.90
52543;DHT22;38449;52.696;6.186;2023-07-31T01:18:38;15.80;99.90
52543;DHT22;38449;52.696;6.186;2023-07-31T01:24:15;15.80;99.90
52543;DHT22;38449;52.696;6.186;2023-07-31T01:26:45;15.80;99.90
52543;DHT22;38449;52.696;6.186;2023-07-31T01:29:16;15.80;99.90
52543;DHT22;38449;52.696;6.186;2023-07-31T01:31:48;15.80;99.90
52543;DHT22;38449;52.696;6.186;2023-07-31T01:34:17;15.80;99.90
52543;DHT22;38449;52.696;6.186;2023-07-31T01:36:44;15.70;99.90
52543;DHT22;38449;52.696;6.186;2023-07-31T01:39:10;15.80;99.90
52543;DHT22;38449;52.696;6.186;2023-07-31T01:41:36;15.80;99.90
52543;DHT22;38449;52.696;6.186;2023-07-31T01:44:02;15.90;99.90
52543;DHT22;38449;52.696;6.186;2023-07-31T01:46:29;15.80;99.90
52543;DHT22;38449;52.696;6.186;2023-07-31T01:48:55;15.70;99.90
52543;DHT22;38449;52.696;6.186;2023-07-31T01:51:21;15.80;99.90
52543;DHT22;38449;52.696;6.186;2023-07-31T01:53:47;15.80;99.90
52543;DHT22;38449;52.696;6.186;2023-07-31T01:56:13;15.80;99.90
52543;DHT22;38449;52.696;6.186;2023-07-31T01:58:40;15.80;99.90
52543;DHT22;38449;52.696;6.186;2023-07-31T02:01:06;15.90;99.90
52543;DHT22;38449;52.696;6.186;2023-07-31T02:03:34;15.80;99.90
52543;DHT22;38449;52.696;6.186;2023-07-31T02:06:00;15.90;99.90
52543;DHT22;38449;52.696;6.186;2023-07-31T02:08:27;16.00;99.90
52543;DHT22;38449;52.696;6.186;2023-07-31T02:10:53;16.00;99.90
52543;DHT22;38449;52.696;6.186;2023-07-31T02:13:20;16.10;99.90
52543;DHT22;38449;52.696;6.186;2023-07-31T02:15:46;16.10;99.90
52543;DHT22;38449;52.696;6.186;2023-07-31T02:18:12;16.20;99.90
52543;DHT22;38449;52.696;6.186;2023-07-31T02:20:39;16.20;99.90
52543;DHT22;38449;52.696;6.186;2023-07-31T02:23:06;16.20;99.90
52543;DHT22;38449;52.696;6.186;2023-07-31T02:25:32;16.10;99.90
52543;DHT22;38449;52.696;6.186;2023-07-31T02:27:59;16.30;99.90
52543;DHT22;38449;52.696;6.186;2023-07-31T02:30:25;16.30;99.90
52543;DHT22;38449;52.696;6.186;2023-07-31T02:32:51;16.30;99.90
52543;DHT22;38449;52.696;6.186;2023-07-31T02:35:17;16.40;99.90
52543;DHT22;38449;52.696;6.186;2023-07-31T02:37:44;16.20;99.90
52543;DHT22;38449;52.696;6.186;2023-07-31T02:40:11;16.30;99.90
52543;DHT22;38449;52.696;6.186;2023-07-31T02:42:37;16.40;99.90
52543;DHT22;38449;52.696;6.186;2023-07-31T02:45:04;16.30;99.90
52543;DHT22;38449;52.696;6.186;2023-07-31T02:47:30;16.40;99.90
52543;DHT22;38449;52.696;6.186;2023-07-31T02:49:56;16.30;99.90
52543;DHT22;38449;52.696;6.186;2023-07-31T02:52:22;16.40;99.90
52543;DHT22;38449;52.696;6.186;2023-07-31T02:54:49;16.40;99.90
52543;DHT22;38449;52.696;6.186;2023-07-31T02:57:15;16.40;99.90
52543;DHT22;38449;52.696;6.186;2023-07-31T02:59:42;16.50;99.90
52543;DHT22;38449;52.696;6.186;2023-07-31T03:02:08;16.50;99.90
52543;DHT22;38449;52.696;6.186;2023-07-31T03:04:35;16.40;99.90
52543;DHT22;38449;52.696;6.186;2023-07-31T03:07:02;16.40;99.90
52543;DHT22;38449;52.696;6.186;2023-07-31T03:09:28;16.50;99.90
52543;DHT22;38449;52.696;6.186;2023-07-31T03:11:54;16.40;99.90
52543;DHT22;38449;52.696;6.186;2023-07-31T03:14:21;16.60;99.90
52543;DHT22;38449;52.696;6.186;2023-07-31T03:16:48;16.50;99.90
52543;DHT22;38449;52.696;6.186;2023-07-31T03:19:14;16.50;99.90
52543;DHT22;38449;52.696;6.186;2023-07-31T03:21:41;16.50;99.90
52543;DHT22;38449;52.696;6.186;2023-07-31T03:24:07;16.50;99.90
52543;DHT22;38449;52.696;6.186;2023-07-31T03:26:33;16.60;99.90
52543;DHT22;38449;52.696;6.186;2023-07-31T03:29:00;16.60;99.90
52543;DHT22;38449;52.696;6.186;2023-07-31T03:31:26;16.60;99.90
52543;DHT22;38449;52.696;6.186;2023-07-31T03:33:52;16.60;99.90
52543;DHT22;38449;52.696;6.186;2023-07-31T03:36:18;16.70;99.90
52543;DHT22;38449;52.696;6.186;2023-07-31T03:38:46;16.60;99.90
52543;DHT22;38449;52.696;6.186;2023-07-31T03:41:13;16.60;99.90
52543;DHT22;38449;52.696;6.186;2023-07-31T03:43:39;16.70;99.90
52543;DHT22;38449;52.696;6.186;2023-07-31T03:46:05;16.80;99.90
52543;DHT22;38449;52.696;6.186;2023-07-31T03:48:31;16.70;99.90
52543;DHT22;38449;52.696;6.186;2023-07-31T03:50:58;16.60;99.90
52543;DHT22;38449;52.696;6.186;2023-07-31T03:53:24;16.70;99.90
52543;DHT22;38449;52.696;6.186;2023-07-31T03:55:50;16.70;99.90
52543;DHT22;38449;52.696;6.186;2023-07-31T03:58:18;16.70;99.90
52543;DHT22;38449;52.696;6.186;2023-07-31T04:00:45;16.60;99.90
52543;DHT22;38449;52.696;6.186;2023-07-31T04:03:12;16.60;99.90
52543;DHT22;38449;52.696;6.186;2023-07-31T04:05:39;16.70;99.90
52543;DHT22;38449;52.696;6.186;2023-07-31T04:08:06;16.70;99.90
52543;DHT22;38449;52.696;6.186;2023-07-31T04:10:33;16.60;99.90
52543;DHT22;38449;52.696;6.186;2023-07-31T04:13:00;16.70;99.90
52543;DHT22;38449;52.696;6.186;2023-07-31T04:15:26;16.70;99.90
52543;DHT22;38449;52.696;6.186;2023-07-31T04:17:54;16.80;99.90
52543;DHT22;38449;52.696;6.186;2023-07-31T04:20:21;16.60;99.90
52543;DHT22;38449;52.696;6.186;2023-07-31T04:22:47;16.70;99.90
52543;DHT22;38449;52.696;6.186;2023-07-31T04:25:13;16.60;99.90
52543;DHT22;38449;52.696;6.186;2023-07-31T04:27:40;16.70;99.90
52543;DHT22;38449;52.696;6.186;2023-07-31T04:30:07;16.80;99.90
52543;DHT22;38449;52.696;6.186;2023-07-31T04:32:33;16.70;99.90
52543;DHT22;38449;52.696;6.186;2023-07-31T04:35:02;16.80;99.90
52543;DHT22;38449;52.696;6.186;2023-07-31T04:37:29;16.80;99.90
52543;DHT22;38449;52.696;6.186;2023-07-31T04:39:56;16.70;99.90
52543;DHT22;38449;52.696;6.186;2023-07-31T04:42:22;16.70;99.90
52543;DHT22;38449;52.696;6.186;2023-07-31T04:44:48;16.80;99.90
52543;DHT22;38449;52.696;6.186;2023-07-31T04:47:15;16.80;99.90
52543;DHT22;38449;52.696;6.186;2023-07-31T04:49:42;16.80;99.90
52543;DHT22;38449;52.696;6.186;2023-07-31T04:52:08;16.80;99.90
52543;DHT22;38449;52.696;6.186;2023-07-31T04:54:34;16.80;99.90
52543;DHT22;38449;52.696;6.186;2023-07-31T04:57:00;16.80;99.90
52543;DHT22;38449;52.696;6.186;2023-07-31T04:59:26;16.80;99.90
52543;DHT22;38449;52.696;6.186;2023-07-31T05:01:54;16.70;99.90
52543;DHT22;38449;52.696;6.186;2023-07-31T05:04:20;16.70;99.90
52543;DHT22;38449;52.696;6.186;2023-07-31T05:06:46;16.90;99.90
52543;DHT22;38449;52.696;6.186;2023-07-31T05:09:13;16.80;99.90
52543;DHT22;38449;52.696;6.186;2023-07-31T05:11:39;16.80;99.90
52543;DHT22;38449;52.696;6.186;2023-07-31T05:14:06;16.70;99.90
52543;DHT22;38449;52.696;6.186;2023-07-31T05:16:33;16.80;99.90
52543;DHT22;38449;52.696;6.186;2023-07-31T05:18:59;16.90;99.90
52543;DHT22;38449;52.696;6.186;2023-07-31T05:21:26;16.90;99.90
52543;DHT22;38449;52.696;6.186;2023-07-31T05:23:53;16.90;99.90
52543;DHT22;38449;52.696;6.186;2023-07-31T05:26:19;16.90;99.90
52543;DHT22;38449;52.696;6.186;2023-07-31T05:28:45;16.80;99.90
52543;DHT22;38449;52.696;6.186;2023-07-31T05:31:11;16.80;99.90
52543;DHT22;38449;52.696;6.186;2023-07-31T05:33:38;16.90;99.90
52543;DHT22;38449;52.696;6.186;2023-07-31T05:36:04;16.80;99.90
52543;DHT22;38449;52.696;6.186;2023-07-31T05:38:30;16.90;99.90
52543;DHT22;38449;52.696;6.186;2023-07-31T05:40:57;16.80;99.90
52543;DHT22;38449;52.696;6.186;2023-07-31T05:43:23;16.90;99.90
52543;DHT22;38449;52.696;6.186;2023-07-31T05:45:50;16.90;99.90
52543;DHT22;38449;52.696;6.186;2023-07-31T05:48:17;17.00;99.90
52543;DHT22;38449;52.696;6.186;2023-07-31T05:50:44;17.00;99.90
52543;DHT22;38449;52.696;6.186;2023-07-31T05:53:10;17.10;99.90
52543;DHT22;38449;52.696;6.186;2023-07-31T05:55:37;17.10;99.90
52543;DHT22;38449;52.696;6.186;2023-07-31T05:58:03;17.10;99.90
52543;DHT22;38449;52.696;6.186;2023-07-31T06:00:29;17.20;99.90
52543;DHT22;38449;52.696;6.186;2023-07-31T06:02:56;17.30;99.90
52543;DHT22;38449;52.696;6.186;2023-07-31T06:05:22;17.10;99.90
52543;DHT22;38449;52.696;6.186;2023-07-31T06:07:48;17.20;99.90
52543;DHT22;38449;52.696;6.186;2023-07-31T06:10:14;17.00;99.90
52543;DHT22;38449;52.696;6.186;2023-07-31T06:12:41;17.10;99.90
52543;DHT22;38449;52.696;6.186;2023-07-31T06:15:07;17.00;99.90
52543;DHT22;38449;52.696;6.186;2023-07-31T06:17:33;17.00;99.90
52543;DHT22;38449;52.696;6.186;2023-07-31T06:20:00;16.90;99.90
52543;DHT22;38449;52.696;6.186;2023-07-31T06:22:26;16.90;99.90
52543;DHT22;38449;52.696;6.186;2023-07-31T06:24:52;16.80;99.90
52543;DHT22;38449;52.696;6.186;2023-07-31T06:27:19;16.80;99.90
52543;DHT22;38449;52.696;6.186;2023-07-31T06:29:45;16.90;99.90
52543;DHT22;38449;52.696;6.186;2023-07-31T06:32:11;16.90;99.90
52543;DHT22;38449;52.696;6.186;2023-07-31T06:34:38;16.90;99.90
52543;DHT22;38449;52.696;6.186;2023-07-31T06:37:04;16.70;99.90
52543;DHT22;38449;52.696;6.186;2023-07-31T06:39:30;16.70;99.90
52543;DHT22;38449;52.696;6.186;2023-07-31T06:41:57;16.70;99.90
52543;DHT22;38449;52.696;6.186;2023-07-31T06:44:23;16.70;99.90
52543;DHT22;38449;52.696;6.186;2023-07-31T06:46:50;16.80;99.90
52543;DHT22;38449;52.696;6.186;2023-07-31T06:49:16;16.80;99.90
52543;DHT22;38449;52.696;6.186;2023-07-31T06:51:44;16.70;99.90
52543;DHT22;38449;52.696;6.186;2023-07-31T06:54:42;16.70;99.90
52543;DHT22;38449;52.696;6.186;2023-07-31T06:57:09;16.80;99.90
52543;DHT22;38449;52.696;6.186;2023-07-31T06:59:35;16.80;99.90
52543;DHT22;38449;52.696;6.186;2023-07-31T07:02:02;16.90;99.90
52543;DHT22;38449;52.696;6.186;2023-07-31T07:04:29;16.80;99.90
52543;DHT22;38449;52.696;6.186;2023-07-31T07:06:55;16.90;99.90
52543;DHT22;38449;52.696;6.186;2023-07-31T07:09:22;16.90;99.90
52543;DHT22;38449;52.696;6.186;2023-07-31T07:11:48;16.90;99.90
52543;DHT22;38449;52.696;6.186;2023-07-31T07:14:14;16.90;99.90
52543;DHT22;38449;52.696;6.186;2023-07-31T07:16:41;16.90;99.90
52543;DHT22;38449;52.696;6.186;2023-07-31T07:19:07;16.90;99.90
52543;DHT22;38449;52.696;6.186;2023-07-31T07:21:33;16.80;99.90
52543;DHT22;38449;52.696;6.186;2023-07-31T07:24:00;16.80;99.90
52543;DHT22;38449;52.696;6.186;2023-07-31T07:26:26;16.80;99.90
52543;DHT22;38449;52.696;6.186;2023-07-31T07:28:52;16.90;99.90
52543;DHT22;38449;52.696;6.186;2023-07-31T07:31:18;16.90;99.90
52543;DHT22;38449;52.696;6.186;2023-07-31T07:33:45;16.90;99.90
52543;DHT22;38449;52.696;6.186;2023-07-31T07:36:11;16.90;99.90
52543;DHT22;38449;52.696;6.186;2023-07-31T07:38:40;17.00;99.90
52543;DHT22;38449;52.696;6.186;2023-07-31T07:41:07;17.00;99.90
52543;DHT22;38449;52.696;6.186;2023-07-31T07:43:34;16.90;99.90
52543;DHT22;38449;52.696;6.186;2023-07-31T07:46:00;16.90;99.90
52543;DHT22;38449;52.696;6.186;2023-07-31T07:48:27;16.90;99.90
52543;DHT22;38449;52.696;6.186;2023-07-31T07:50:53;17.00;99.90
52543;DHT22;38449;52.696;6.186;2023-07-31T07:53:19;16.90;99.90
52543;DHT22;38449;52.696;6.186;2023-07-31T07:55:46;16.90;99.90
52543;DHT22;38449;52.696;6.186;2023-07-31T07:58:12;17.10;99.90
52543;DHT22;38449;52.696;6.186;2023-07-31T08:00:38;17.20;99.90
52543;DHT22;38449;52.696;6.186;2023-07-31T08:03:05;17.20;99.90
52543;DHT22;38449;52.696;6.186;2023-07-31T08:05:31;17.20;99.90
52543;DHT22;38449;52.696;6.186;2023-07-31T08:08:00;17.20;99.90
52543;DHT22;38449;52.696;6.186;2023-07-31T08:10:26;17.40;99.90
52543;DHT22;38449;52.696;6.186;2023-07-31T08:12:52;17.20;99.90
52543;DHT22;38449;52.696;6.186;2023-07-31T08:15:18;17.30;99.90
52543;DHT22;38449;52.696;6.186;2023-07-31T08:17:45;17.30;99.90
52543;DHT22;38449;52.696;6.186;2023-07-31T08:20:11;17.30;99.90
52543;DHT22;38449;52.696;6.186;2023-07-31T08:22:39;17.20;99.90
52543;DHT22;38449;52.696;6.186;2023-07-31T08:25:05;17.20;99.90
52543;DHT22;38449;52.696;6.186;2023-07-31T08:27:32;17.40;99.90
52543;DHT22;38449;52.696;6.186;2023-07-31T08:29:58;17.40;99.90
52543;DHT22;38449;52.696;6.186;2023-07-31T08:32:25;17.50;99.90
52543;DHT22;38449;52.696;6.186;2023-07-31T08:34:52;17.40;99.90
52543;DHT22;38449;52.696;6.186;2023-07-31T08:37:18;17.30;99.90
52543;DHT22;38449;52.696;6.186;2023-07-31T08:39:44;17.40;99.90
52543;DHT22;38449;52.696;6.186;2023-07-31T08:42:10;17.40;99.90
52543;DHT22;38449;52.696;6.186;2023-07-31T08:44:38;17.50;99.90
52543;DHT22;38449;52.696;6.186;2023-07-31T08:47:04;17.50;99.90
52543;DHT22;38449;52.696;6.186;2023-07-31T08:49:32;17.40;99.90
52543;DHT22;38449;52.696;6.186;2023-07-31T08:52:04;17.50;99.90
52543;DHT22;38449;52.696;6.186;2023-07-31T08:54:31;17.60;99.90
52543;DHT22;38449;52.696;6.186;2023-07-31T08:56:59;17.60;99.90
52543;DHT22;38449;52.696;6.186;2023-07-31T08:59:30;17.70;99.90
52543;DHT22;38449;52.696;6.186;2023-07-31T09:02:08;17.60;99.90
52543;DHT22;38449;52.696;6.186;2023-07-31T09:04:34;17.70;99.90
52543;DHT22;38449;52.696;6.186;2023-07-31T09:07:02;17.70;99.90
52543;DHT22;38449;52.696;6.186;2023-07-31T09:09:31;17.80;99.90
52543;DHT22;38449;52.696;6.186;2023-07-31T09:11:58;17.80;99.90
52543;DHT22;38449;52.696;6.186;2023-07-31T09:14:32;17.70;99.90
52543;DHT22;38449;52.696;6.186;2023-07-31T09:16:59;17.70;99.90
52543;DHT22;38449;52.696;6.186;2023-07-31T09:19:32;17.70;99.90
52543;DHT22;38449;52.696;6.186;2023-07-31T09:22:00;17.80;99.90
52543;DHT22;38449;52.696;6.186;2023-07-31T09:24:29;17.90;99.90
52543;DHT22;38449;52.696;6.186;2023-07-31T09:26:58;18.00;99.90
52543;DHT22;38449;52.696;6.186;2023-07-31T09:29:27;18.10;99.90
52543;DHT22;38449;52.696;6.186;2023-07-31T09:31:54;18.10;99.90
52543;DHT22;38449;52.696;6.186;2023-07-31T09:34:36;18.10;99.90
52543;DHT22;38449;52.696;6.186;2023-07-31T09:37:04;18.20;99.90
52543;DHT22;38449;52.696;6.186;2023-07-31T09:39:31;18.20;99.90
52543;DHT22;38449;52.696;6.186;2023-07-31T09:41:57;18.20;99.90
52543;DHT22;38449;52.696;6.186;2023-07-31T09:44:40;18.00;99.90
52543;DHT22;38449;52.696;6.186;2023-07-31T09:47:29;18.30;99.90
52543;DHT22;38449;52.696;6.186;2023-07-31T09:49:57;18.10;99.90
52543;DHT22;38449;52.696;6.186;2023-07-31T09:52:26;18.30;99.90
52543;DHT22;38449;52.696;6.186;2023-07-31T09:54:53;18.30;99.90
52543;DHT22;38449;52.696;6.186;2023-07-31T09:57:21;18.40;99.90
52543;DHT22;38449;52.696;6.186;2023-07-31T09:59:48;18.40;99.90
52543;DHT22;38449;52.696;6.186;2023-07-31T10:02:32;18.40;99.90
52543;DHT22;38449;52.696;6.186;2023-07-31T10:05:02;18.50;99.90
52543;DHT22;38449;52.696;6.186;2023-07-31T10:07:31;18.40;99.90
52543;DHT22;38449;52.696;6.186;2023-07-31T10:10:00;18.40;99.90
52543;DHT22;38449;52.696;6.186;2023-07-31T10:12:27;18.60;99.90
52543;DHT22;38449;52.696;6.186;2023-07-31T10:14:55;18.70;99.90
52543;DHT22;38449;52.696;6.186;2023-07-31T10:17:24;18.50;99.90
52543;DHT22;38449;52.696;6.186;2023-07-31T10:19:51;18.60;99.90
52543;DHT22;38449;52.696;6.186;2023-07-31T10:22:21;18.70;99.90
52543;DHT22;38449;52.696;6.186;2023-07-31T10:24:48;18.60;99.90
52543;DHT22;38449;52.696;6.186;2023-07-31T10:27:16;18.80;99.90
52543;DHT22;38449;52.696;6.186;2023-07-31T10:29:43;18.80;99.90
52543;DHT22;38449;52.696;6.186;2023-07-31T10:32:14;18.70;99.90
52543;DHT22;38449;52.696;6.186;2023-07-31T10:34:41;18.90;99.90
52543;DHT22;38449;52.696;6.186;2023-07-31T10:37:24;18.90;99.90
52543;DHT22;38449;52.696;6.186;2023-07-31T10:40:17;19.00;99.90
52543;DHT22;38449;52.696;6.186;2023-07-31T10:42:50;19.00;99.90
52543;DHT22;38449;52.696;6.186;2023-07-31T10:45:31;19.10;99.90
52543;DHT22;38449;52.696;6.186;2023-07-31T10:48:06;18.90;99.90
52543;DHT22;38449;52.696;6.186;2023-07-31T10:53:32;19.00;99.90
52543;DHT22;38449;52.696;6.186;2023-07-31T10:56:10;19.00;99.90
52543;DHT22;38449;52.696;6.186;2023-07-31T10:58:44;19.00;99.90
52543;DHT22;38449;52.696;6.186;2023-07-31T11:01:11;19.10;99.90
52543;DHT22;38449;52.696;6.186;2023-07-31T11:03:45;19.00;99.90
52543;DHT22;38449;52.696;6.186;2023-07-31T11:06:13;19.30;99.90
52543;DHT22;38449;52.696;6.186;2023-07-31T11:08:47;19.30;99.90
52543;DHT22;38449;52.696;6.186;2023-07-31T11:11:16;19.40;99.90
52543;DHT22;38449;52.696;6.186;2023-07-31T11:13:50;19.40;99.90
52543;DHT22;38449;52.696;6.186;2023-07-31T11:16:22;19.40;99.90
52543;DHT22;38449;52.696;6.186;2023-07-31T11:18:50;19.50;99.90
52543;DHT22;38449;52.696;6.186;2023-07-31T11:21:19;19.70;99.90
52543;DHT22;38449;52.696;6.186;2023-07-31T11:23:50;19.70;99.90
52543;DHT22;38449;52.696;6.186;2023-07-31T11:26:18;20.00;99.90
52543;DHT22;38449;52.696;6.186;2023-07-31T11:28:47;20.00;99.90
52543;DHT22;38449;52.696;6.186;2023-07-31T11:31:14;19.80;99.90
52543;DHT22;38449;52.696;6.186;2023-07-31T11:33:41;19.80;99.90
52543;DHT22;38449;52.696;6.186;2023-07-31T11:36:16;19.90;99.90
52543;DHT22;38449;52.696;6.186;2023-07-31T11:38:42;19.90;99.90
52543;DHT22;38449;52.696;6.186;2023-07-31T11:41:14;20.10;99.90
52543;DHT22;38449;52.696;6.186;2023-07-31T11:43:43;20.00;99.90
52543;DHT22;38449;52.696;6.186;2023-07-31T11:46:09;20.10;99.90
52543;DHT22;38449;52.696;6.186;2023-07-31T11:48:37;20.00;99.90
52543;DHT22;38449;52.696;6.186;2023-07-31T11:51:10;20.20;99.90
52543;DHT22;38449;52.696;6.186;2023-07-31T11:53:51;20.20;99.90
52543;DHT22;38449;52.696;6.186;2023-07-31T11:56:50;20.30;99.90
52543;DHT22;38449;52.696;6.186;2023-07-31T11:59:17;20.20;99.90
52543;DHT22;38449;52.696;6.186;2023-07-31T12:01:44;20.30;99.90
52543;DHT22;38449;52.696;6.186;2023-07-31T12:04:10;20.20;99.90
52543;DHT22;38449;52.696;6.186;2023-07-31T12:06:37;20.10;99.90
52543;DHT22;38449;52.696;6.186;2023-07-31T12:09:05;20.10;99.90
52543;DHT22;38449;52.696;6.186;2023-07-31T12:11:45;20.20;99.90
52543;DHT22;38449;52.696;6.186;2023-07-31T12:14:25;20.40;99.90
52543;DHT22;38449;52.696;6.186;2023-07-31T12:17:00;20.60;99.90
52543;DHT22;38449;52.696;6.186;2023-07-31T12:19:27;20.80;99.90
52543;DHT22;38449;52.696;6.186;2023-07-31T12:21:57;21.00;99.90
52543;DHT22;38449;52.696;6.186;2023-07-31T12:24:26;21.10;99.90
52543;DHT22;38449;52.696;6.186;2023-07-31T12:26:52;21.20;99.90
52543;DHT22;38449;52.696;6.186;2023-07-31T12:29:19;21.30;99.90
52543;DHT22;38449;52.696;6.186;2023-07-31T12:31:45;21.30;99.90
52543;DHT22;38449;52.696;6.186;2023-07-31T12:34:19;21.20;99.90
52543;DHT22;38449;52.696;6.186;2023-07-31T12:36:47;21.10;99.90
52543;DHT22;38449;52.696;6.186;2023-07-31T12:39:15;21.10;99.90
52543;DHT22;38449;52.696;6.186;2023-07-31T12:41:41;21.00;99.90
52543;DHT22;38449;52.696;6.186;2023-07-31T12:44:07;21.10;99.90
52543;DHT22;38449;52.696;6.186;2023-07-31T12:46:33;21.10;99.90
52543;DHT22;38449;52.696;6.186;2023-07-31T12:49:01;21.10;99.90
52543;DHT22;38449;52.696;6.186;2023-07-31T12:51:27;21.00;99.90
52543;DHT22;38449;52.696;6.186;2023-07-31T12:53:53;21.00;99.90
52543;DHT22;38449;52.696;6.186;2023-07-31T12:56:52;20.90;99.90
52543;DHT22;38449;52.696;6.186;2023-07-31T12:59:20;21.10;99.90
52543;DHT22;38449;52.696;6.186;2023-07-31T13:01:46;21.10;99.90
52543;DHT22;38449;52.696;6.186;2023-07-31T13:04:12;21.20;99.90
52543;DHT22;38449;52.696;6.186;2023-07-31T13:06:38;21.30;99.90
52543;DHT22;38449;52.696;6.186;2023-07-31T13:09:05;21.30;99.90
52543;DHT22;38449;52.696;6.186;2023-07-31T13:11:31;21.40;99.90
52543;DHT22;38449;52.696;6.186;2023-07-31T13:13:57;21.50;99.90
52543;DHT22;38449;52.696;6.186;2023-07-31T13:16:23;21.60;99.90
52543;DHT22;38449;52.696;6.186;2023-07-31T13:18:51;21.50;99.90
52543;DHT22;38449;52.696;6.186;2023-07-31T13:21:19;21.50;99.90
52543;DHT22;38449;52.696;6.186;2023-07-31T13:23:48;21.50;99.90
52543;DHT22;38449;52.696;6.186;2023-07-31T13:26:15;21.30;99.90
52543;DHT22;38449;52.696;6.186;2023-07-31T13:28:41;21.20;99.90
52543;DHT22;38449;52.696;6.186;2023-07-31T13:31:07;21.20;99.90
52543;DHT22;38449;52.696;6.186;2023-07-31T13:33:33;21.00;99.90
52543;DHT22;38449;52.696;6.186;2023-07-31T13:36:00;21.10;99.90
52543;DHT22;38449;52.696;6.186;2023-07-31T13:38:27;21.10;99.90
52543;DHT22;38449;52.696;6.186;2023-07-31T13:40:54;21.10;99.90
52543;DHT22;38449;52.696;6.186;2023-07-31T13:43:21;21.20;99.90
52543;DHT22;38449;52.696;6.186;2023-07-31T13:45:47;21.10;99.90
52543;DHT22;38449;52.696;6.186;2023-07-31T13:48:14;21.00;99.90
52543;DHT22;38449;52.696;6.186;2023-07-31T13:50:40;21.10;99.90
52543;DHT22;38449;52.696;6.186;2023-07-31T13:53:06;21.20;99.90
52543;DHT22;38449;52.696;6.186;2023-07-31T13:55:32;21.20;99.90
52543;DHT22;38449;52.696;6.186;2023-07-31T13:57:59;21.20;99.90
52543;DHT22;38449;52.696;6.186;2023-07-31T14:00:25;21.30;99.90
52543;DHT22;38449;52.696;6.186;2023-07-31T14:02:51;21.50;99.90
52543;DHT22;38449;52.696;6.186;2023-07-31T14:05:18;21.40;99.90
52543;DHT22;38449;52.696;6.186;2023-07-31T14:07:44;21.50;99.90
52543;DHT22;38449;52.696;6.186;2023-07-31T14:10:10;21.50;99.90
52543;DHT22;38449;52.696;6.186;2023-07-31T14:12:38;21.50;99.90
52543;DHT22;38449;52.696;6.186;2023-07-31T14:15:04;21.60;99.90
52543;DHT22;38449;52.696;6.186;2023-07-31T14:17:32;21.60;99.90
52543;DHT22;38449;52.696;6.186;2023-07-31T14:19:58;21.40;99.90
52543;DHT22;38449;52.696;6.186;2023-07-31T14:22:31;21.50;99.90
52543;DHT22;38449;52.696;6.186;2023-07-31T14:25:00;21.60;99.90
52543;DHT22;38449;52.696;6.186;2023-07-31T14:27:26;21.60;99.90
52543;DHT22;38449;52.696;6.186;2023-07-31T14:29:52;21.50;99.90
52543;DHT22;38449;52.696;6.186;2023-07-31T14:32:18;21.50;99.90
52543;DHT22;38449;52.696;6.186;2023-07-31T14:34:45;21.50;99.90
52543;DHT22;38449;52.696;6.186;2023-07-31T14:37:12;21.30;99.90
52543;DHT22;38449;52.696;6.186;2023-07-31T14:39:38;21.20;99.90
52543;DHT22;38449;52.696;6.186;2023-07-31T14:42:04;21.00;99.90
52543;DHT22;38449;52.696;6.186;2023-07-31T14:44:31;20.90;99.90
52543;DHT22;38449;52.696;6.186;2023-07-31T14:46:57;21.00;99.90
52543;DHT22;38449;52.696;6.186;2023-07-31T14:49:55;21.00;99.90
52543;DHT22;38449;52.696;6.186;2023-07-31T14:52:21;21.00;99.90
52543;DHT22;38449;52.696;6.186;2023-07-31T14:54:48;20.80;99.90
52543;DHT22;38449;52.696;6.186;2023-07-31T14:57:14;20.70;99.90
52543;DHT22;38449;52.696;6.186;2023-07-31T14:59:40;20.80;99.90
52543;DHT22;38449;52.696;6.186;2023-07-31T15:02:08;20.60;99.90
52543;DHT22;38449;52.696;6.186;2023-07-31T15:04:35;20.60;99.90
52543;DHT22;38449;52.696;6.186;2023-07-31T15:07:02;20.50;99.90
52543;DHT22;38449;52.696;6.186;2023-07-31T15:09:29;20.50;99.90
52543;DHT22;38449;52.696;6.186;2023-07-31T15:11:56;20.40;99.90
52543;DHT22;38449;52.696;6.186;2023-07-31T15:14:23;20.40;99.90
52543;DHT22;38449;52.696;6.186;2023-07-31T15:16:50;20.30;99.90
52543;DHT22;38449;52.696;6.186;2023-07-31T15:19:16;20.20;99.90
52543;DHT22;38449;52.696;6.186;2023-07-31T15:21:44;20.20;99.90
52543;DHT22;38449;52.696;6.186;2023-07-31T15:24:10;19.90;99.90
52543;DHT22;38449;52.696;6.186;2023-07-31T15:26:37;19.90;99.90
52543;DHT22;38449;52.696;6.186;2023-07-31T15:29:05;19.80;99.90
52543;DHT22;38449;52.696;6.186;2023-07-31T15:31:35;19.90;99.90
52543;DHT22;38449;52.696;6.186;2023-07-31T15:34:04;19.70;99.90
52543;DHT22;38449;52.696;6.186;2023-07-31T15:36:31;19.80;99.90
52543;DHT22;38449;52.696;6.186;2023-07-31T15:38:58;19.90;99.90
52543;DHT22;38449;52.696;6.186;2023-07-31T15:41:25;19.80;99.90